createdAt,value
2022-10-15T00:00:50.477Z,93897.38
2022-10-15T00:03:17.497Z,93889.34
2022-10-15T00:05:44.389Z,93892.75
2022-10-15T00:08:12.058Z,93889.03
2022-10-15T00:10:38.756Z,93890.06
2022-10-15T00:13:06.416Z,93883.59
2022-10-15T00:15:33.392Z,93895.47
2022-10-15T00:18:00.210Z,93889.47
2022-10-15T00:20:27.032Z,93890.06
2022-10-15T00:22:53.615Z,93887.69
2022-10-15T00:25:20.551Z,93886.44
2022-10-15T00:27:47.309Z,93884.06
2022-10-15T00:30:14.117Z,93879.97
2022-10-15T00:32:40.929Z,93891.88
2022-10-15T00:35:07.792Z,93884.63
2022-10-15T00:37:34.719Z,93874.78
2022-10-15T00:42:33.081Z,93868.00
2022-10-15T00:45:00.189Z,93862.34
2022-10-15T00:47:48.977Z,93857.28
2022-10-15T00:50:17.731Z,93866.22
2022-10-15T00:52:59.728Z,93858.06
2022-10-15T00:55:32.132Z,93854.47
2022-10-15T00:58:02.121Z,93860.56
2022-10-15T01:00:29.264Z,93856.72
2022-10-15T01:02:56.095Z,93855.81
2022-10-15T01:05:23.730Z,93851.31
2022-10-15T01:07:50.533Z,93861.56
2022-10-15T01:10:18.271Z,93852.56
2022-10-15T01:12:52.149Z,93856.50
2022-10-15T01:15:36.497Z,93858.88
2022-10-15T01:18:19.831Z,93846.13
2022-10-15T01:20:59.276Z,93844.63
2022-10-15T01:23:58.442Z,93841.91
2022-10-15T01:27:02.171Z,93850.28
2022-10-15T01:30:04.829Z,93840.91
2022-10-15T01:32:36.829Z,93833.22
2022-10-15T01:35:23.125Z,93837.38
2022-10-15T01:37:56.968Z,93828.59
2022-10-15T01:40:35.203Z,93829.16
2022-10-15T01:43:04.615Z,93832.53
2022-10-15T01:45:41.149Z,93826.91
2022-10-15T01:48:12.631Z,93816.81
2022-10-15T01:50:44.058Z,93813.56
2022-10-15T01:53:12.028Z,93812.31
2022-10-15T01:55:42.771Z,93805.19
2022-10-15T01:58:10.683Z,93807.22
2022-10-15T02:00:38.738Z,93801.16
2022-10-15T02:03:05.518Z,93806.69
2022-10-15T02:05:37.389Z,93797.75
2022-10-15T02:08:31.500Z,93791.31
2022-10-15T02:11:04.969Z,93789.38
2022-10-15T02:13:40.629Z,93785.75
2022-10-15T02:16:14.369Z,93791.41
2022-10-15T02:18:52.180Z,93786.81
2022-10-15T02:21:32.193Z,93778.56
2022-10-15T02:24:20.569Z,93778.00
2022-10-15T02:26:47.432Z,93775.84
2022-10-15T02:29:18.415Z,93775.50
2022-10-15T02:31:47.553Z,93783.41
2022-10-15T02:34:18.937Z,93766.94
2022-10-15T02:36:45.937Z,93775.97
2022-10-15T02:39:16.277Z,93781.38
2022-10-15T02:41:44.141Z,93776.53
2022-10-15T02:44:10.969Z,93775.50
2022-10-15T02:46:37.710Z,93774.81
2022-10-15T02:49:04.510Z,93778.41
2022-10-15T02:51:35.738Z,93779.53
2022-10-15T02:54:04.512Z,93775.13
2022-10-15T02:56:31.882Z,93776.72
2022-10-15T02:58:58.821Z,93777.06
2022-10-15T03:01:25.765Z,93775.13
2022-10-15T03:03:52.598Z,93776.94
2022-10-15T03:06:19.385Z,93773.00
2022-10-15T03:08:46.119Z,93778.22
2022-10-15T03:11:12.971Z,93769.41
2022-10-15T03:13:40.208Z,93767.16
2022-10-15T03:16:11.336Z,93771.41
2022-10-15T03:18:40.627Z,93773.38
2022-10-15T03:21:07.852Z,93768.28
2022-10-15T03:23:34.683Z,93775.63
2022-10-15T03:26:01.662Z,93775.28
2022-10-15T03:28:28.494Z,93777.53
2022-10-15T03:30:55.490Z,93772.50
2022-10-15T03:33:24.455Z,93763.69
2022-10-15T03:35:52.900Z,93778.47
2022-10-15T03:38:19.692Z,93777.69
2022-10-15T03:40:46.733Z,93772.50
2022-10-15T03:43:13.551Z,93775.88
2022-10-15T03:45:40.369Z,93772.00
2022-10-15T03:48:07.349Z,93772.00
2022-10-15T03:50:34.376Z,93772.00
2022-10-15T03:53:04.169Z,93773.59
2022-10-15T03:55:31.019Z,93761.88
2022-10-15T03:57:57.731Z,93767.50
2022-10-15T04:00:24.697Z,93771.22
2022-10-15T04:02:51.509Z,93772.50
2022-10-15T04:05:18.148Z,93765.13
2022-10-15T04:07:44.954Z,93767.50
2022-10-15T04:10:12.057Z,93757.47
2022-10-15T04:12:38.784Z,93766.81
2022-10-15T04:15:05.950Z,93761.19
2022-10-15T04:17:32.681Z,93759.03
2022-10-15T04:19:59.448Z,93752.16
2022-10-15T04:22:26.373Z,93754.88
2022-10-15T04:24:53.292Z,93749.09
2022-10-15T04:27:19.908Z,93755.09
2022-10-15T04:29:48.953Z,93748.53
2022-10-15T04:32:16.306Z,93756.34
2022-10-15T04:34:43.289Z,93751.34
2022-10-15T04:37:09.830Z,93749.75
2022-10-15T04:39:36.565Z,93749.34
2022-10-15T04:42:03.175Z,93753.38
2022-10-15T04:44:29.797Z,93750.91
2022-10-15T04:46:56.822Z,93752.28
2022-10-15T04:49:23.418Z,93746.28
2022-10-15T04:51:49.986Z,93747.16
2022-10-15T04:54:16.799Z,93744.00
2022-10-15T04:56:43.376Z,93734.53
2022-10-15T04:59:10.152Z,93735.00
2022-10-15T05:01:36.886Z,93735.00
2022-10-15T05:04:03.584Z,93742.19
2022-10-15T05:06:30.172Z,93739.38
2022-10-15T05:08:56.858Z,93751.13
2022-10-15T05:11:25.938Z,93754.06
2022-10-15T05:13:53.103Z,93747.28
2022-10-15T05:16:23.900Z,93752.25
2022-10-15T05:18:52.609Z,93752.91
2022-10-15T05:21:20.010Z,93749.19
2022-10-15T05:23:47.357Z,93750.09
2022-10-15T05:26:15.856Z,93741.63
2022-10-15T05:28:42.874Z,93753.38
2022-10-15T05:31:18.648Z,93746.16
2022-10-15T05:33:47.090Z,93751.78
2022-10-15T05:36:17.999Z,93758.13
2022-10-15T05:38:46.134Z,93757.44
2022-10-15T05:41:12.943Z,93747.72
2022-10-15T05:43:41.335Z,93751.44
2022-10-15T05:46:08.809Z,93757.56
2022-10-15T05:48:35.444Z,93758.34
2022-10-15T05:51:06.302Z,93761.25
2022-10-15T05:53:33.150Z,93753.56
2022-10-15T05:56:00.230Z,93760.56
2022-10-15T05:58:31.986Z,93754.13
2022-10-15T06:01:03.453Z,93756.63
2022-10-15T06:03:30.717Z,93750.72
2022-10-15T06:05:57.357Z,93757.50
2022-10-15T06:08:24.260Z,93767.69
2022-10-15T06:10:50.941Z,93768.03
2022-10-15T06:13:17.589Z,93774.31
2022-10-15T06:15:45.625Z,93778.50
2022-10-15T06:18:15.939Z,93781.00
2022-10-15T06:20:43.722Z,93775.38
2022-10-15T06:23:11.653Z,93780.63
2022-10-15T06:25:38.382Z,93782.31
2022-10-15T06:28:06.688Z,93777.25
2022-10-15T06:30:33.922Z,93786.41
2022-10-15T06:33:00.765Z,93787.75
2022-10-15T06:35:30.515Z,93789.09
2022-10-15T06:38:02.989Z,93790.69
2022-10-15T06:40:30.872Z,93802.09
2022-10-15T06:43:08.723Z,93795.88
2022-10-15T06:45:37.020Z,93793.19
2022-10-15T06:48:06.801Z,93792.72
2022-10-15T06:50:34.751Z,93799.50
2022-10-15T06:53:01.516Z,93809.91
2022-10-15T06:55:29.132Z,93808.78
2022-10-15T06:57:56.424Z,93808.78
2022-10-15T07:00:24.378Z,93814.78
2022-10-15T07:02:51.454Z,93811.50
2022-10-15T07:05:18.741Z,93812.22
2022-10-15T07:07:55.587Z,93806.28
2022-10-15T07:10:23.232Z,93811.94
2022-10-15T07:12:49.992Z,93816.91
2022-10-15T07:15:17.073Z,93817.16
2022-10-15T07:17:50.508Z,93821.56
2022-10-15T07:20:21.622Z,93816.03
2022-10-15T07:22:50.134Z,93823.59
2022-10-15T07:25:16.879Z,93817.72
2022-10-15T07:27:43.493Z,93824.84
2022-10-15T07:30:10.835Z,93813.59
2022-10-15T07:32:37.621Z,93813.84
2022-10-15T07:35:05.284Z,93808.31
2022-10-15T07:37:32.221Z,93812.84
2022-10-15T07:39:59.104Z,93819.28
2022-10-15T07:42:26.070Z,93817.03
2022-10-15T07:44:52.781Z,93821.72
2022-10-15T07:47:19.613Z,93820.16
2022-10-15T07:49:46.369Z,93820.88
2022-10-15T07:52:13.262Z,93822.69
2022-10-15T07:54:40.073Z,93831.81
2022-10-15T07:57:09.741Z,93832.59
2022-10-15T07:59:36.593Z,93823.53
2022-10-15T08:02:03.554Z,93828.94
2022-10-15T08:04:30.790Z,93838.09
2022-10-15T08:06:57.497Z,93838.03
2022-10-15T08:09:24.150Z,93835.06
2022-10-15T08:11:50.873Z,93842.56
2022-10-15T08:14:17.940Z,93840.75
2022-10-15T08:16:44.691Z,93844.84
2022-10-15T08:19:11.430Z,93848.91
2022-10-15T08:21:38.179Z,93840.75
2022-10-15T08:24:05.772Z,93853.78
2022-10-15T08:26:32.565Z,93843.38
2022-10-15T08:28:59.526Z,93850.63
2022-10-15T08:31:26.203Z,93849.72
2022-10-15T08:33:53.051Z,93848.78
2022-10-15T08:36:19.963Z,93846.19
2022-10-15T08:38:46.746Z,93852.75
2022-10-15T08:41:34.697Z,93851.56
2022-10-15T08:44:01.947Z,93847.03
2022-10-15T08:46:38.417Z,93857.69
2022-10-15T08:49:05.633Z,93857.31
2022-10-15T08:51:39.847Z,93855.50
2022-10-15T08:54:07.302Z,93857.00
2022-10-15T08:56:37.001Z,93859.28
2022-10-15T08:59:31.814Z,93861.09
2022-10-15T09:02:16.647Z,93867.41
2022-10-15T09:04:43.390Z,93861.34
2022-10-15T09:07:21.133Z,93865.53
2022-10-15T09:10:16.761Z,93864.34
2022-10-15T09:13:00.365Z,93860.50
2022-10-15T09:15:28.073Z,93870.56
2022-10-15T09:17:55.302Z,93860.84
2022-10-15T09:20:33.955Z,93863.78
2022-10-15T09:23:00.536Z,93869.03
2022-10-15T09:25:34.957Z,93853.50
2022-10-15T09:28:10.545Z,93874.31
2022-10-15T09:30:43.833Z,93880.78
2022-10-15T09:33:16.602Z,93882.13
2022-10-15T09:35:44.388Z,93881.09
2022-10-15T09:38:28.271Z,93883.72
2022-10-15T09:41:16.825Z,93887.56
2022-10-15T09:43:47.242Z,93880.28
2022-10-15T09:46:14.213Z,93888.66
2022-10-15T09:49:03.626Z,93882.66
2022-10-15T09:51:40.969Z,93887.16
2022-10-15T09:54:37.694Z,93883.06
2022-10-15T09:57:09.548Z,93891.03
2022-10-15T09:59:36.786Z,93893.72
2022-10-15T10:02:19.248Z,93888.03
2022-10-15T10:04:46.296Z,93888.19
2022-10-15T10:07:32.082Z,93877.13
2022-10-15T10:10:02.708Z,93886.53
2022-10-15T10:12:33.277Z,93896.31
2022-10-15T10:15:10.478Z,93888.13
2022-10-15T10:17:37.463Z,93880.63
2022-10-15T10:20:10.267Z,93893.97
2022-10-15T10:22:56.131Z,93890.78
2022-10-15T10:25:52.341Z,93892.94
2022-10-15T10:28:28.351Z,93894.38
2022-10-15T10:30:58.492Z,93894.59
2022-10-15T10:33:28.642Z,93900.34
2022-10-15T10:35:56.249Z,93904.44
2022-10-15T10:38:27.849Z,93907.28
2022-10-15T10:41:05.400Z,93901.16
2022-10-15T10:43:38.226Z,93902.38
2022-10-15T10:46:17.159Z,93901.47
2022-10-15T10:48:49.098Z,93903.41
2022-10-15T10:51:19.381Z,93910.44
2022-10-15T10:54:06.741Z,93908.16
2022-10-15T10:56:37.817Z,93912.22
2022-10-15T10:59:23.658Z,93899.94
2022-10-15T11:01:51.105Z,93915.38
2022-10-15T11:04:28.402Z,93910.09
2022-10-15T11:07:20.173Z,93909.06
2022-10-15T11:10:16.150Z,93906.78
2022-10-15T11:12:52.286Z,93905.00
2022-10-15T11:15:51.207Z,93908.03
2022-10-15T11:18:52.890Z,93900.63
2022-10-15T11:21:55.261Z,93909.50
2022-10-15T11:24:33.471Z,93903.41
2022-10-15T11:27:31.028Z,93907.31
2022-10-15T11:30:26.529Z,93908.88
2022-10-15T11:33:32.142Z,93897.72
2022-10-15T11:36:17.766Z,93908.56
2022-10-15T11:38:53.703Z,93905.22
2022-10-15T11:41:20.288Z,93905.97
2022-10-15T11:43:57.428Z,93902.91
2022-10-15T11:46:53.819Z,93898.56
2022-10-15T11:49:57.345Z,93901.69
2022-10-15T11:52:50.808Z,93901.31
2022-10-15T11:55:25.610Z,93920.78
2022-10-15T11:57:54.478Z,93913.34
2022-10-15T12:00:33.136Z,93909.75
2022-10-15T12:03:10.034Z,93910.28
2022-10-15T12:05:53.714Z,93909.25
2022-10-15T12:08:21.485Z,93911.91
2022-10-15T12:10:53.695Z,93914.91
2022-10-15T12:13:23.219Z,93910.00
2022-10-15T12:15:49.776Z,93910.72
2022-10-15T12:18:45.928Z,93913.59
2022-10-15T12:21:56.927Z,93911.91
2022-10-15T12:24:39.644Z,93905.72
2022-10-15T12:27:26.802Z,93905.97
2022-10-15T12:30:13.405Z,93908.38
2022-10-15T12:32:46.542Z,93903.34
2022-10-15T12:35:16.217Z,93902.88
2022-10-15T12:37:45.822Z,93905.22
2022-10-15T12:40:21.549Z,93904.94
2022-10-15T12:42:53.507Z,93907.31
2022-10-15T12:45:40.843Z,93903.69
2022-10-15T12:48:20.480Z,93902.06
2022-10-15T12:50:47.480Z,93899.50
2022-10-15T12:53:28.825Z,93898.16
2022-10-15T12:56:10.829Z,93906.59
2022-10-15T12:58:39.293Z,93901.38
2022-10-15T13:01:27.079Z,93895.47
2022-10-15T13:03:58.562Z,93888.13
2022-10-15T13:06:31.675Z,93889.66
2022-10-15T13:09:11.744Z,93891.13
2022-10-15T13:14:36.987Z,93886.38
2022-10-15T13:17:06.692Z,93878.78
2022-10-15T13:19:41.618Z,93880.84
2022-10-15T13:22:21.772Z,93881.03
2022-10-15T13:24:49.000Z,93873.97
2022-10-15T13:27:27.389Z,93864.91
2022-10-15T13:30:05.567Z,93870.13
2022-10-15T13:32:36.460Z,93865.59
2022-10-15T13:35:10.522Z,93873.56
2022-10-15T13:37:39.722Z,93862.91
2022-10-15T13:40:08.296Z,93858.09
2022-10-15T13:42:35.479Z,93858.72
2022-10-15T13:45:14.309Z,93856.75
2022-10-15T13:47:49.499Z,93855.63
2022-10-15T13:50:35.611Z,93857.66
2022-10-15T13:53:34.881Z,93849.41
2022-10-15T13:56:27.445Z,93860.47
2022-10-15T13:58:55.141Z,93869.91
2022-10-15T14:01:23.980Z,93879.34
2022-10-15T14:04:01.620Z,93884.59
2022-10-15T14:06:38.260Z,93881.72
2022-10-15T14:09:16.641Z,93884.56
2022-10-15T14:11:43.400Z,93881.44
2022-10-15T14:14:33.910Z,93880.16
2022-10-15T14:17:03.811Z,93874.38
2022-10-15T14:19:31.442Z,93878.88
2022-10-15T14:21:59.199Z,93880.44
2022-10-15T14:24:33.560Z,93876.22
2022-10-15T14:27:08.574Z,93879.88
2022-10-15T14:29:43.119Z,93881.22
2022-10-15T14:32:21.000Z,93884.63
2022-10-15T14:34:48.587Z,93878.84
2022-10-15T14:37:46.041Z,93890.59
2022-10-15T14:40:18.738Z,93889.56
2022-10-15T14:43:02.640Z,93887.16
2022-10-15T14:45:36.507Z,93883.53
2022-10-15T14:48:15.231Z,93891.88
2022-10-15T14:50:44.610Z,93886.34
2022-10-15T14:53:19.542Z,93894.47
2022-10-15T14:55:52.556Z,93885.50
2022-10-15T14:58:23.107Z,93879.75
2022-10-15T15:00:56.620Z,93888.13
2022-10-15T15:03:28.622Z,93884.47
2022-10-15T15:05:57.010Z,93889.59
2022-10-15T15:08:26.000Z,93885.84
2022-10-15T15:10:55.674Z,93884.44
2022-10-15T15:13:24.708Z,93892.03
2022-10-15T15:15:52.080Z,93878.88
2022-10-15T15:18:19.708Z,93881.47
2022-10-15T15:20:48.423Z,93876.72
2022-10-15T15:23:21.149Z,93885.06
2022-10-15T15:25:48.081Z,93894.34
2022-10-15T15:28:23.083Z,93895.88
2022-10-15T15:31:05.532Z,93894.53
2022-10-15T15:33:32.981Z,93895.03
2022-10-15T15:36:08.018Z,93898.59
2022-10-15T15:41:16.589Z,93901.31
2022-10-15T15:43:43.870Z,93902.06
2022-10-15T15:46:10.713Z,93907.50
2022-10-15T15:48:38.061Z,93905.13
2022-10-15T15:51:07.670Z,93908.47
2022-10-15T15:53:35.401Z,93900.88
2022-10-15T15:56:02.180Z,93904.28
2022-10-15T15:58:28.921Z,93911.53
2022-10-15T16:00:55.570Z,93911.25
2022-10-15T16:03:22.271Z,93921.41
2022-10-15T16:08:21.617Z,93921.47
2022-10-15T16:10:48.437Z,93925.84
2022-10-15T16:13:15.349Z,93923.97
2022-10-15T16:15:42.075Z,93927.84
2022-10-15T16:18:09.368Z,93931.69
2022-10-15T16:20:39.613Z,93935.84
2022-10-15T16:23:06.558Z,93938.38
2022-10-15T16:25:33.292Z,93945.06
2022-10-15T16:28:01.996Z,93945.44
2022-10-15T16:30:29.039Z,93950.56
2022-10-15T16:32:55.942Z,93956.75
2022-10-15T16:35:22.857Z,93962.44
2022-10-15T16:37:52.331Z,93970.38
2022-10-15T16:40:19.231Z,93972.31
2022-10-15T16:42:45.893Z,93975.56
2022-10-15T16:45:12.650Z,93982.06
2022-10-15T16:47:39.310Z,93990.41
2022-10-15T16:50:06.597Z,93993.91
2022-10-15T16:52:36.259Z,94001.00
2022-10-15T16:55:03.190Z,94001.00
2022-10-15T16:57:29.859Z,94003.63
2022-10-15T16:59:56.629Z,94008.28
2022-10-15T17:02:23.521Z,94014.88
2022-10-15T17:04:50.453Z,94029.94
2022-10-15T17:07:17.428Z,94033.75
2022-10-15T17:09:45.086Z,94036.13
2022-10-15T17:12:11.993Z,94038.22
2022-10-15T17:14:38.719Z,94036.31
2022-10-15T17:17:07.761Z,94040.25
2022-10-15T17:19:35.211Z,94044.00
2022-10-15T17:22:02.077Z,94044.81
2022-10-15T17:24:28.820Z,94049.78
2022-10-15T17:26:58.029Z,94045.81
2022-10-15T17:29:27.873Z,94054.78
2022-10-15T17:31:57.571Z,94056.16
2022-10-15T17:34:24.312Z,94052.97
2022-10-15T17:36:52.318Z,94062.59
2022-10-15T17:39:20.540Z,94064.66
2022-10-15T17:41:47.308Z,94059.53
2022-10-15T17:44:14.468Z,94061.13
2022-10-15T17:46:41.500Z,94072.09
2022-10-15T17:49:11.117Z,94065.47
2022-10-15T17:51:37.893Z,94079.16
2022-10-15T17:54:06.729Z,94073.50
2022-10-15T17:56:35.976Z,94068.19
2022-10-15T17:59:06.471Z,94066.38
2022-10-15T18:04:36.689Z,94083.44
2022-10-15T18:07:04.155Z,94086.53
2022-10-15T18:09:34.436Z,94088.19
2022-10-15T18:12:02.418Z,94089.88
2022-10-15T18:14:32.009Z,94094.97
2022-10-15T18:16:59.040Z,94094.75
2022-10-15T18:19:27.785Z,94099.47
2022-10-15T18:21:56.403Z,94099.81
2022-10-15T18:24:24.891Z,94111.47
2022-10-15T18:26:53.123Z,94109.44
2022-10-15T18:29:20.701Z,94113.41
2022-10-15T18:31:57.179Z,94119.41
2022-10-15T18:34:25.109Z,94121.00
2022-10-15T18:36:52.634Z,94121.00
2022-10-15T18:39:19.598Z,94128.34
2022-10-15T18:41:46.307Z,94125.28
2022-10-15T18:44:16.812Z,94125.38
2022-10-15T18:46:45.145Z,94126.88
2022-10-15T18:49:13.566Z,94124.94
2022-10-15T18:51:40.563Z,94133.00
2022-10-15T18:54:08.770Z,94125.75
2022-10-15T18:56:36.675Z,94126.19
2022-10-15T18:59:03.570Z,94130.28
2022-10-15T19:01:36.796Z,94134.81
2022-10-15T19:04:06.074Z,94131.53
2022-10-15T19:06:39.197Z,94132.78
2022-10-15T19:09:09.249Z,94134.13
2022-10-15T19:11:37.558Z,94131.66
2022-10-15T19:14:05.074Z,94128.03
2022-10-15T19:16:32.313Z,94126.44
2022-10-15T19:18:59.955Z,94129.16
2022-10-15T19:21:27.498Z,94125.28
2022-10-15T19:23:54.369Z,94133.56
2022-10-15T19:26:21.472Z,94135.38
2022-10-15T19:28:50.591Z,94127.91
2022-10-15T19:31:28.085Z,94142.53
2022-10-15T19:33:58.360Z,94134.25
2022-10-15T19:36:27.983Z,94148.41
2022-10-15T19:38:55.838Z,94141.75
2022-10-15T19:41:22.588Z,94140.28
2022-10-15T19:43:49.300Z,94146.53
2022-10-15T19:46:16.460Z,94147.53
2022-10-15T19:48:43.222Z,94144.72
2022-10-15T19:51:10.124Z,94141.22
2022-10-15T19:53:36.837Z,94146.88
2022-10-15T19:56:08.555Z,94141.56
2022-10-15T19:58:35.809Z,94161.47
2022-10-15T20:01:02.747Z,94150.19
2022-10-15T20:03:30.298Z,94161.84
2022-10-15T20:05:58.325Z,94162.84
2022-10-15T20:08:25.040Z,94162.72
2022-10-15T20:10:52.469Z,94164.97
2022-10-15T20:13:21.713Z,94172.78
2022-10-15T20:15:50.788Z,94172.44
2022-10-15T20:18:17.946Z,94176.97
2022-10-15T20:20:45.721Z,94176.84
2022-10-15T20:23:14.697Z,94176.63
2022-10-15T20:25:42.893Z,94183.19
2022-10-15T20:28:11.117Z,94185.56
2022-10-15T20:30:39.023Z,94180.00
2022-10-15T20:33:06.921Z,94181.81
2022-10-15T20:35:37.001Z,94189.84
2022-10-15T20:38:04.068Z,94191.09
2022-10-15T20:40:31.376Z,94195.06
2022-10-15T20:42:58.083Z,94198.53
2022-10-15T20:45:27.551Z,94202.72
2022-10-15T20:47:54.370Z,94198.88
2022-10-15T20:50:27.141Z,94197.72
2022-10-15T20:52:54.771Z,94208.28
2022-10-15T20:55:21.671Z,94210.06
2022-10-15T20:57:48.314Z,94210.97
2022-10-15T21:00:15.289Z,94214.38
2022-10-15T21:02:42.160Z,94215.75
2022-10-15T21:05:09.817Z,94222.66
2022-10-15T21:07:36.438Z,94227.22
2022-10-15T21:10:03.593Z,94230.19
2022-10-15T21:12:30.158Z,94226.88
2022-10-15T21:14:56.830Z,94221.00
2022-10-15T21:17:23.768Z,94229.94
2022-10-15T21:19:52.814Z,94226.78
2022-10-15T21:22:19.936Z,94235.59
2022-10-15T21:24:46.555Z,94233.00
2022-10-15T21:27:13.160Z,94239.66
2022-10-15T21:29:39.876Z,94242.72
2022-10-15T21:32:06.468Z,94241.34
2022-10-15T21:34:33.092Z,94246.19
2022-10-15T21:36:59.640Z,94248.03
2022-10-15T21:39:26.427Z,94240.31
2022-10-15T21:41:53.069Z,94245.16
2022-10-15T21:44:19.798Z,94249.13
2022-10-15T21:46:46.332Z,94246.38
2022-10-15T21:49:14.029Z,94253.03
2022-10-15T21:51:41.029Z,94249.75
2022-10-15T21:54:09.060Z,94255.75
2022-10-15T21:56:36.115Z,94258.13
2022-10-15T21:59:03.214Z,94272.03
2022-10-15T22:01:32.378Z,94265.63
2022-10-15T22:04:01.696Z,94262.31
2022-10-15T22:06:28.571Z,94271.47
2022-10-15T22:08:55.235Z,94268.66
2022-10-15T22:11:24.303Z,94272.41
2022-10-15T22:13:59.215Z,94262.91
2022-10-15T22:16:27.057Z,94273.84
2022-10-15T22:18:54.454Z,94276.25
2022-10-15T22:21:29.489Z,94283.59
2022-10-15T22:23:58.850Z,94278.97
2022-10-15T22:26:31.470Z,94280.50
2022-10-15T22:28:59.661Z,94281.06
2022-10-15T22:31:26.981Z,94281.72
2022-10-15T22:33:53.711Z,94285.59
2022-10-15T22:36:22.890Z,94281.63
2022-10-15T22:38:53.457Z,94271.00
2022-10-15T22:41:20.057Z,94280.53
2022-10-15T22:43:46.660Z,94288.19
2022-10-15T22:46:13.693Z,94278.16
2022-10-15T22:48:41.662Z,94294.66
2022-10-15T22:51:10.455Z,94291.28
2022-10-15T22:53:37.280Z,94294.56
2022-10-15T22:56:07.478Z,94299.41
2022-10-15T22:58:34.747Z,94291.47
2022-10-15T23:01:13.599Z,94294.06
2022-10-15T23:03:42.833Z,94303.09
2022-10-15T23:06:10.044Z,94297.44
2022-10-15T23:08:37.310Z,94300.56
2022-10-15T23:11:10.646Z,94300.09
2022-10-15T23:13:38.277Z,94301.03
2022-10-15T23:16:12.388Z,94305.78
2022-10-15T23:18:39.195Z,94313.16
2022-10-15T23:21:17.021Z,94305.22
2022-10-15T23:23:44.820Z,94305.22
2022-10-15T23:26:16.085Z,94309.78
2022-10-15T23:28:44.262Z,94297.56
2022-10-15T23:31:26.516Z,94299.03
2022-10-15T23:33:54.556Z,94301.41
2022-10-15T23:36:22.475Z,94292.59
2022-10-15T23:38:51.029Z,94296.78
2022-10-15T23:41:17.980Z,94295.34
2022-10-15T23:43:44.736Z,94288.63
2022-10-15T23:46:11.726Z,94293.72
2022-10-15T23:48:38.367Z,94299.16
2022-10-15T23:51:12.445Z,94299.16
2022-10-15T23:53:39.259Z,94298.34
2022-10-15T23:56:05.939Z,94300.38
2022-10-15T23:58:32.665Z,94304.44
